createdAt,value
2018-04-14T00:02:25.207Z,83.30
2018-04-14T00:04:57.858Z,83.30
2018-04-14T00:07:30.491Z,83.40
2018-04-14T00:10:03.361Z,83.10
2018-04-14T00:12:36.748Z,82.70
2018-04-14T00:15:09.350Z,82.70
2018-04-14T00:17:41.988Z,83.00
2018-04-14T00:20:14.603Z,84.00
2018-04-14T00:22:47.257Z,83.40
2018-04-14T00:25:19.861Z,83.20
2018-04-14T00:27:52.489Z,84.10
2018-04-14T00:30:25.092Z,83.90
2018-04-14T00:32:57.742Z,84.60
2018-04-14T00:35:30.348Z,84.90
2018-04-14T00:38:02.980Z,84.60
2018-04-14T00:40:36.351Z,86.80
2018-04-14T00:43:08.980Z,86.70
2018-04-14T00:45:42.350Z,87.70
2018-04-14T00:48:14.994Z,87.70
2018-04-14T00:50:48.367Z,88.50
2018-04-14T00:53:32.832Z,88.50
2018-04-14T00:56:05.452Z,88.70
2018-04-14T00:58:38.856Z,89.00
2018-04-14T01:01:11.462Z,88.90
2018-04-14T01:03:44.873Z,89.30
2018-04-14T01:06:18.257Z,89.90
2018-04-14T01:08:50.898Z,89.80
2018-04-14T01:11:23.508Z,90.00
2018-04-14T01:20:11.004Z,90.40
2018-04-14T01:22:43.638Z,90.50
2018-04-14T01:25:16.266Z,90.40
2018-04-14T01:27:49.641Z,90.00
2018-04-14T01:30:22.268Z,90.00
2018-04-14T01:32:54.867Z,90.40
2018-04-14T01:35:27.500Z,90.10
2018-04-14T01:38:00.105Z,90.80
2018-04-14T01:40:32.739Z,90.40
2018-04-14T01:43:05.340Z,90.90
2018-04-14T01:45:37.964Z,90.10
2018-04-14T01:48:10.572Z,90.50
2018-04-14T01:50:43.200Z,90.00
2018-04-14T01:53:15.813Z,90.70
2018-04-14T01:55:48.436Z,90.80
2018-04-14T01:58:21.047Z,91.00
2018-04-14T02:00:53.676Z,90.90
2018-04-14T02:03:26.284Z,90.70
2018-04-14T02:05:58.916Z,90.80
2018-04-14T02:08:31.518Z,90.80
2018-04-14T02:11:04.948Z,91.20
2018-04-14T02:13:37.557Z,91.10
2018-04-14T02:16:10.973Z,90.70
2018-04-14T02:18:43.591Z,90.90
2018-04-14T02:21:16.230Z,91.20
2018-04-14T02:23:49.601Z,91.20
2018-04-14T02:26:22.248Z,91.20
2018-04-14T02:28:54.859Z,92.30
2018-04-14T02:31:27.517Z,91.20
2018-04-14T02:34:00.129Z,92.10
2018-04-14T02:36:32.789Z,91.50
2018-04-14T02:39:06.184Z,91.80
2018-04-14T02:41:38.816Z,91.80
2018-04-14T02:44:11.427Z,91.80
2018-04-14T02:46:44.052Z,91.30
2018-04-14T02:49:16.668Z,91.20
2018-04-14T02:51:49.313Z,91.60
2018-04-14T02:54:21.937Z,91.80
2018-04-14T02:56:55.360Z,91.80
2018-04-14T02:59:28.034Z,91.80
2018-04-14T03:02:00.661Z,92.00
2018-04-14T03:04:33.272Z,91.60
2018-04-14T03:07:05.904Z,91.90
2018-04-14T03:09:38.508Z,91.70
2018-04-14T03:12:12.854Z,91.60
2018-04-14T03:14:46.231Z,91.80
2018-04-14T03:17:18.886Z,91.80
2018-04-14T03:26:07.639Z,91.60
2018-04-14T03:28:40.255Z,91.80
2018-04-14T03:31:12.881Z,92.20
2018-04-14T03:33:46.285Z,92.40
2018-04-14T03:36:19.652Z,92.50
2018-04-14T03:38:52.272Z,92.80
2018-04-14T03:41:24.887Z,92.60
2018-04-14T03:43:57.534Z,92.70
2018-04-14T03:46:30.136Z,93.10
2018-04-14T03:49:02.767Z,92.80
2018-04-14T03:51:35.368Z,93.20
2018-04-14T03:54:08.024Z,92.90
2018-04-14T03:56:41.395Z,93.60
2018-04-14T03:59:14.057Z,93.40
2018-04-14T04:01:46.681Z,93.50
2018-04-14T04:04:19.313Z,93.50
2018-04-14T04:06:52.693Z,93.40
2018-04-14T04:09:25.339Z,93.60
2018-04-14T04:11:57.945Z,93.80
2018-04-14T04:14:30.592Z,93.90
2018-04-14T04:17:03.206Z,93.80
2018-04-14T04:19:47.723Z,94.00
2018-04-14T04:22:32.365Z,94.00
2018-04-14T04:25:16.937Z,94.10
2018-04-14T04:27:49.545Z,94.40
2018-04-14T04:30:22.182Z,94.30
2018-04-14T04:32:54.810Z,94.50
2018-04-14T04:35:27.450Z,94.50
2018-04-14T04:38:00.056Z,94.60
2018-04-14T04:40:32.685Z,94.40
2018-04-14T04:43:05.317Z,94.50
2018-04-14T04:45:37.948Z,94.80
2018-04-14T04:48:11.333Z,94.90
2018-04-14T04:50:43.995Z,94.80
2018-04-14T04:53:16.617Z,95.20
2018-04-14T04:55:49.276Z,95.30
2018-04-14T04:58:21.894Z,95.30
2018-04-14T05:00:54.548Z,95.60
2018-04-14T05:03:27.156Z,95.40
2018-04-14T05:05:59.805Z,95.40
2018-04-14T05:08:33.206Z,95.90
2018-04-14T05:11:05.947Z,95.90
2018-04-14T05:13:38.728Z,95.20
2018-04-14T05:16:11.608Z,94.80
2018-04-14T05:18:44.563Z,94.80
2018-04-14T05:21:18.082Z,94.80
2018-04-14T05:23:50.692Z,94.80
2018-04-14T05:26:24.104Z,95.00
2018-04-14T05:28:57.485Z,94.50
2018-04-14T05:31:43.868Z,94.80
2018-04-14T05:34:16.509Z,94.50
2018-04-14T05:36:49.128Z,94.70
2018-04-14T05:39:21.735Z,94.60
2018-04-14T05:41:54.359Z,94.80
2018-04-14T05:44:26.967Z,95.30
2018-04-14T05:46:59.595Z,95.10
2018-04-14T05:49:32.208Z,95.40
2018-04-14T05:52:04.843Z,95.80
2018-04-14T05:54:37.447Z,95.70
2018-04-14T05:57:11.016Z,95.60
2018-04-14T05:59:43.690Z,95.60
2018-04-14T06:02:16.329Z,95.80
2018-04-14T06:04:48.941Z,95.70
2018-04-14T06:07:22.331Z,95.70
2018-04-14T06:09:54.936Z,95.70
2018-04-14T06:12:41.135Z,95.60
2018-04-14T06:15:14.005Z,95.40
2018-04-14T06:17:47.508Z,95.20
2018-04-14T06:20:20.124Z,95.20
2018-04-14T06:22:52.760Z,95.20
2018-04-14T06:25:25.369Z,95.10
2018-04-14T06:27:57.996Z,94.90
2018-04-14T06:30:30.603Z,94.90
2018-04-14T06:33:03.264Z,95.00
2018-04-14T06:35:35.892Z,94.90
2018-04-14T06:38:08.525Z,95.00
2018-04-14T06:40:41.186Z,95.10
2018-04-14T06:43:14.604Z,95.20
2018-04-14T06:45:47.236Z,95.20
2018-04-14T06:48:19.869Z,95.30
2018-04-14T06:50:52.516Z,94.80
2018-04-14T06:53:43.136Z,95.30
2018-04-14T06:56:15.763Z,95.30
2018-04-14T06:58:48.396Z,95.00
2018-04-14T07:01:21.013Z,95.00
2018-04-14T07:03:53.673Z,94.90
2018-04-14T07:06:26.284Z,95.10
2018-04-14T07:08:58.941Z,94.60
2018-04-14T07:11:32.330Z,94.90
2018-04-14T07:14:05.029Z,94.90
2018-04-14T07:16:38.415Z,94.80
2018-04-14T07:19:11.071Z,94.80
2018-04-14T07:21:43.683Z,94.30
2018-04-14T07:24:16.335Z,94.30
2018-04-14T07:26:48.995Z,94.40
2018-04-14T07:29:21.620Z,94.30
2018-04-14T07:31:54.997Z,95.00
2018-04-14T07:34:27.658Z,95.00
2018-04-14T07:37:00.275Z,94.60
2018-04-14T07:39:32.923Z,94.60
2018-04-14T07:42:05.532Z,94.60
2018-04-14T07:44:38.190Z,94.10
2018-04-14T07:47:10.805Z,93.80
2018-04-14T07:49:43.465Z,94.60
2018-04-14T07:52:16.103Z,94.20
2018-04-14T07:54:48.741Z,94.00
2018-04-14T07:57:22.123Z,93.90
2018-04-14T07:59:54.816Z,93.80
2018-04-14T08:02:27.481Z,94.20
2018-04-14T08:05:00.079Z,93.90
2018-04-14T08:07:32.696Z,94.10
2018-04-14T08:10:05.509Z,94.50
2018-04-14T08:12:38.887Z,94.60
2018-04-14T08:15:11.532Z,94.60
2018-04-14T08:17:44.150Z,94.40
2018-04-14T08:20:19.703Z,94.40
2018-04-14T08:22:52.542Z,94.70
2018-04-14T08:25:25.200Z,94.90
2018-04-14T08:27:59.553Z,93.40
2018-04-14T08:30:32.215Z,93.30
2018-04-14T08:33:04.841Z,93.30
2018-04-14T08:35:37.488Z,93.90
2018-04-14T08:41:08.781Z,93.90
2018-04-14T08:43:41.395Z,93.90
2018-04-14T08:46:14.041Z,93.80
2018-04-14T08:48:47.429Z,92.90
2018-04-14T08:51:20.061Z,92.90
2018-04-14T08:53:52.692Z,93.70
2018-04-14T08:56:25.362Z,93.40
2018-04-14T08:58:57.976Z,92.70
2018-04-14T09:01:30.619Z,93.20
2018-04-14T09:04:03.996Z,93.50
2018-04-14T09:06:36.635Z,93.40
2018-04-14T09:09:09.292Z,93.70
2018-04-14T09:11:41.934Z,93.90
2018-04-14T09:14:14.735Z,92.80
2018-04-14T09:16:47.406Z,92.60
2018-04-14T09:19:20.029Z,92.90
2018-04-14T09:21:52.685Z,92.80
2018-04-14T09:24:25.292Z,92.70
2018-04-14T09:26:57.948Z,92.80
2018-04-14T09:29:30.564Z,92.60
2018-04-14T09:32:03.226Z,92.90
2018-04-14T09:34:35.845Z,93.20
2018-04-14T09:37:09.256Z,92.20
2018-04-14T09:39:41.872Z,92.20
2018-04-14T09:42:14.557Z,92.00
2018-04-14T09:44:47.196Z,91.40
2018-04-14T09:47:19.840Z,91.90
2018-04-14T09:49:54.659Z,90.80
2018-04-14T09:52:27.318Z,90.90
2018-04-14T09:55:00.244Z,91.50
2018-04-14T09:57:32.973Z,91.00
2018-04-14T10:00:05.596Z,91.30
2018-04-14T10:02:44.021Z,90.80
2018-04-14T10:05:16.644Z,91.50
2018-04-14T10:07:50.061Z,91.10
2018-04-14T10:10:23.490Z,91.90
2018-04-14T10:12:57.005Z,91.90
2018-04-14T10:15:30.545Z,92.00
2018-04-14T10:18:03.221Z,92.00
2018-04-14T10:20:36.604Z,92.40
2018-04-14T10:23:09.993Z,92.60
2018-04-14T10:25:42.689Z,92.60
2018-04-14T10:28:15.326Z,92.70
2018-04-14T10:30:47.966Z,92.40
2018-04-14T10:33:20.611Z,92.70
2018-04-14T10:35:53.979Z,92.50
2018-04-14T10:38:26.624Z,92.50
2018-04-14T10:40:59.233Z,93.00
2018-04-14T10:43:31.886Z,92.70
2018-04-14T10:46:04.487Z,92.10
2018-04-14T10:48:37.119Z,92.10
2018-04-14T10:51:09.729Z,92.30
2018-04-14T10:53:42.371Z,92.20
2018-04-14T10:56:14.978Z,92.20
2018-04-14T10:58:47.600Z,92.30
2018-04-14T11:01:20.199Z,91.60
2018-04-14T11:03:52.892Z,91.10
2018-04-14T11:06:25.476Z,90.50
2018-04-14T11:08:58.103Z,89.60
2018-04-14T11:11:30.714Z,90.00
2018-04-14T11:14:03.340Z,87.50
2018-04-14T11:16:35.944Z,86.20
2018-04-14T11:19:08.567Z,85.80
2018-04-14T11:21:41.181Z,84.90
2018-04-14T11:24:13.804Z,85.00
2018-04-14T11:26:46.419Z,85.00
2018-04-14T11:29:19.846Z,83.60
2018-04-14T11:31:52.456Z,83.60
2018-04-14T11:34:25.110Z,84.50
2018-04-14T11:36:58.488Z,83.80
2018-04-14T11:39:31.119Z,83.70
2018-04-14T11:42:04.491Z,84.50
2018-04-14T11:44:37.132Z,84.50
2018-04-14T11:47:09.735Z,85.40
2018-04-14T11:49:42.380Z,84.50
2018-04-14T11:52:14.980Z,85.60
2018-04-14T11:54:47.604Z,85.20
2018-04-14T11:57:20.233Z,84.80
2018-04-14T11:59:52.860Z,84.60
2018-04-14T12:02:26.255Z,82.10
2018-04-14T12:04:58.904Z,81.50
2018-04-14T12:07:31.509Z,82.40
2018-04-14T12:10:04.145Z,81.50
2018-04-14T12:12:37.511Z,82.60
2018-04-14T12:15:10.164Z,82.60
2018-04-14T12:17:42.775Z,82.60
2018-04-14T12:20:15.416Z,83.40
2018-04-14T12:22:48.024Z,83.70
2018-04-14T12:25:21.433Z,80.20
2018-04-14T12:27:54.804Z,80.60
2018-04-14T12:30:27.428Z,80.50
2018-04-14T12:33:00.825Z,82.50
2018-04-14T12:35:33.551Z,81.70
2018-04-14T12:38:06.926Z,80.10
2018-04-14T12:40:39.576Z,79.80
2018-04-14T12:43:12.178Z,80.20
2018-04-14T12:45:44.806Z,79.20
2018-04-14T12:48:17.413Z,81.00
2018-04-14T12:50:50.812Z,81.70
2018-04-14T12:53:23.424Z,81.70
2018-04-14T12:55:56.836Z,82.70
2018-04-14T12:58:29.443Z,82.80
2018-04-14T13:01:02.088Z,82.10
2018-04-14T13:03:34.693Z,83.80
2018-04-14T13:06:08.085Z,84.90
2018-04-14T13:08:40.688Z,84.80
2018-04-14T13:11:13.332Z,83.10
2018-04-14T13:13:45.936Z,82.00
2018-04-14T13:16:18.588Z,82.40
2018-04-14T13:18:51.960Z,83.40
2018-04-14T13:21:24.615Z,83.40
2018-04-14T13:23:57.226Z,83.60
2018-04-14T13:26:29.869Z,82.20
2018-04-14T13:29:03.245Z,82.80
2018-04-14T13:31:35.893Z,82.60
2018-04-14T13:34:08.496Z,85.00
2018-04-14T13:36:41.145Z,83.10
2018-04-14T13:39:14.523Z,81.40
2018-04-14T13:41:47.177Z,80.70
2018-04-14T13:44:19.778Z,82.10
2018-04-14T13:46:52.412Z,82.30
2018-04-14T13:49:25.021Z,83.30
2018-04-14T13:51:58.965Z,83.00
2018-04-14T13:54:31.575Z,82.90
2018-04-14T13:57:04.224Z,83.40
2018-04-14T13:59:37.601Z,83.30
2018-04-14T14:02:17.739Z,83.20
2018-04-14T14:04:50.349Z,83.60
2018-04-14T14:07:22.979Z,82.70
2018-04-14T14:09:56.403Z,83.10
2018-04-14T14:12:31.829Z,83.10
2018-04-14T14:15:16.056Z,83.50
2018-04-14T14:17:49.194Z,83.40
2018-04-14T14:20:21.963Z,84.60
2018-04-14T14:22:55.014Z,83.60
2018-04-14T14:25:30.841Z,83.00
2018-04-14T14:28:03.536Z,82.90
2018-04-14T14:30:36.213Z,84.70
2018-04-14T14:33:08.844Z,83.70
2018-04-14T14:35:41.453Z,81.50
2018-04-14T14:38:14.848Z,80.90
2018-04-14T14:40:47.466Z,80.90
2018-04-14T14:43:20.164Z,79.80
2018-04-14T14:45:52.776Z,79.30
2018-04-14T14:48:25.415Z,76.80
2018-04-14T14:50:58.800Z,78.00
2018-04-14T14:53:31.432Z,77.80
2018-04-14T14:56:04.803Z,78.50
2018-04-14T14:58:37.437Z,78.40
2018-04-14T15:01:10.812Z,77.00
2018-04-14T15:03:43.436Z,77.00
2018-04-14T15:06:16.821Z,76.40
2018-04-14T15:08:49.457Z,76.40
2018-04-14T15:11:27.234Z,76.40
2018-04-14T15:13:59.869Z,75.30
2018-04-14T15:16:32.480Z,75.70
2018-04-14T15:19:05.159Z,75.00
2018-04-14T15:21:37.764Z,76.20
2018-04-14T15:24:10.408Z,75.60
2018-04-14T15:26:43.793Z,74.00
2018-04-14T15:29:16.451Z,73.90
2018-04-14T15:31:49.061Z,72.40
2018-04-14T15:34:21.707Z,71.00
2018-04-14T15:36:54.312Z,71.10
2018-04-14T15:39:26.943Z,72.50
2018-04-14T15:41:59.554Z,73.50
2018-04-14T15:44:32.203Z,72.80
2018-04-14T15:47:04.811Z,72.90
2018-04-14T15:49:37.436Z,72.50
2018-04-14T15:52:10.803Z,72.70
2018-04-14T15:54:43.443Z,72.70
2018-04-14T15:57:16.824Z,71.70
2018-04-14T15:59:50.555Z,71.70
2018-04-14T16:02:23.941Z,73.00
2018-04-14T16:04:58.593Z,72.90
2018-04-14T16:07:31.201Z,72.90
2018-04-14T16:10:04.588Z,72.50
2018-04-14T16:12:37.195Z,71.60
2018-04-14T16:15:10.590Z,71.10
2018-04-14T16:17:43.200Z,71.10
2018-04-14T16:20:15.860Z,68.80
2018-04-14T16:22:48.464Z,68.00
2018-04-14T16:25:21.104Z,66.30
2018-04-14T16:27:53.708Z,66.00
2018-04-14T16:30:26.351Z,68.00
2018-04-14T16:32:58.949Z,68.20
2018-04-14T16:35:31.573Z,68.30
2018-04-14T16:38:04.176Z,67.90
2018-04-14T16:40:36.816Z,68.60
2018-04-14T16:43:09.411Z,68.00
2018-04-14T16:45:42.807Z,68.00
2018-04-14T16:48:15.416Z,68.00
2018-04-14T16:50:48.064Z,65.90
2018-04-14T16:53:21.220Z,68.00
2018-04-14T16:55:54.640Z,69.10
2018-04-14T16:58:28.016Z,69.90
2018-04-14T17:01:00.700Z,69.90
2018-04-14T17:03:33.316Z,70.70
2018-04-14T17:06:05.932Z,69.90
2018-04-14T17:08:38.532Z,69.20
2018-04-14T17:11:11.143Z,70.80
2018-04-14T17:13:43.747Z,70.70
2018-04-14T17:16:16.400Z,70.90
2018-04-14T17:18:49.032Z,70.70
2018-04-14T17:21:21.716Z,70.40
2018-04-14T17:23:54.316Z,70.90
2018-04-14T17:26:26.951Z,71.30
2018-04-14T17:29:00.312Z,70.90
2018-04-14T17:31:32.940Z,70.90
2018-04-14T17:34:05.549Z,71.20
2018-04-14T17:36:38.957Z,72.00
2018-04-14T17:39:11.564Z,71.90
2018-04-14T17:41:44.200Z,72.90
2018-04-14T17:44:16.834Z,73.10
2018-04-14T17:46:49.499Z,72.40
2018-04-14T17:49:22.101Z,72.10
2018-04-14T17:51:54.721Z,71.90
2018-04-14T17:54:27.325Z,72.40
2018-04-14T17:56:59.971Z,73.10
2018-04-14T17:59:32.581Z,72.30
2018-04-14T18:02:05.969Z,72.30
2018-04-14T18:04:38.585Z,72.30
2018-04-14T18:07:11.979Z,73.10
2018-04-14T18:09:44.592Z,73.90
2018-04-14T18:12:17.248Z,72.90
2018-04-14T18:14:49.857Z,73.30
2018-04-14T18:17:23.284Z,73.40
2018-04-14T18:19:56.655Z,75.80
2018-04-14T18:22:29.284Z,75.90
2018-04-14T18:25:03.436Z,76.30
2018-04-14T18:27:46.578Z,76.20
2018-04-14T18:30:19.176Z,76.40
2018-04-14T18:38:47.814Z,75.70
2018-04-14T18:41:20.420Z,76.00
2018-04-14T18:43:53.044Z,76.10
2018-04-14T18:46:25.651Z,76.00
2018-04-14T18:48:58.267Z,75.40
2018-04-14T18:51:31.628Z,75.60
2018-04-14T18:54:08.843Z,75.50
2018-04-14T18:56:41.447Z,75.90
2018-04-14T18:59:14.090Z,76.40
2018-04-14T19:01:46.717Z,76.80
2018-04-14T19:04:19.335Z,76.80
2018-04-14T19:06:52.696Z,78.50
2018-04-14T19:09:25.357Z,77.50
2018-04-14T19:11:58.712Z,77.80
2018-04-14T19:14:34.852Z,77.80
2018-04-14T19:17:07.475Z,77.30
2018-04-14T19:19:40.092Z,77.40
2018-04-14T19:22:12.695Z,78.10
2018-04-14T19:24:46.100Z,77.40
2018-04-14T19:27:18.836Z,77.30
2018-04-14T19:29:51.582Z,77.30
2018-04-14T19:32:24.397Z,77.70
2018-04-14T19:34:57.197Z,77.70
2018-04-14T19:37:30.764Z,78.10
2018-04-14T19:40:03.400Z,78.10
2018-04-14T19:42:36.764Z,78.20
2018-04-14T19:45:16.280Z,78.80
2018-04-14T19:47:48.871Z,78.10
2018-04-14T19:50:21.508Z,78.90
2018-04-14T19:52:54.113Z,78.40
2018-04-14T19:55:26.751Z,78.60
2018-04-14T19:57:59.350Z,78.60
2018-04-14T20:00:31.984Z,78.50
2018-04-14T20:03:04.816Z,78.40
2018-04-14T20:05:37.477Z,78.20
2018-04-14T20:08:10.080Z,78.30
2018-04-14T20:10:42.705Z,78.10
2018-04-14T20:13:15.320Z,77.50
2018-04-14T20:15:47.956Z,78.50
2018-04-14T20:18:20.551Z,78.30
2018-04-14T20:20:58.522Z,78.40
2018-04-14T20:23:31.125Z,78.50
2018-04-14T20:26:03.784Z,78.10
2018-04-14T20:28:36.393Z,78.20
2018-04-14T20:31:09.045Z,77.90
2018-04-14T20:33:42.411Z,78.50
2018-04-14T20:36:15.041Z,78.40
2018-04-14T20:38:48.423Z,78.60
2018-04-14T20:41:21.064Z,78.50
2018-04-14T20:43:53.668Z,78.20
2018-04-14T20:46:26.321Z,78.50
2018-04-14T20:48:59.692Z,78.00
2018-04-14T20:51:32.331Z,77.90
2018-04-14T20:54:05.714Z,78.80
2018-04-14T20:56:38.337Z,78.70
2018-04-14T20:59:11.713Z,78.40
2018-04-14T21:01:44.355Z,78.40
2018-04-14T21:04:17.728Z,79.60
2018-04-14T21:06:50.372Z,79.50
2018-04-14T21:09:22.972Z,79.10
2018-04-14T21:11:55.615Z,79.10
2018-04-14T21:14:28.223Z,79.40
2018-04-14T21:17:01.739Z,79.40
2018-04-14T21:19:35.116Z,79.80
2018-04-14T21:22:07.741Z,79.60
2018-04-14T21:24:41.115Z,80.20
2018-04-14T21:27:13.742Z,80.20
2018-04-14T21:29:47.346Z,80.10
2018-04-14T21:32:20.025Z,80.70
2018-04-14T21:34:52.624Z,81.60
2018-04-14T21:37:25.270Z,80.80
2018-04-14T21:39:57.868Z,80.90
2018-04-14T21:42:30.488Z,81.00
2018-04-14T21:45:03.084Z,80.70
2018-04-14T21:47:35.728Z,80.90
2018-04-14T21:50:08.327Z,80.80
2018-04-14T21:52:40.951Z,81.00
2018-04-14T21:55:13.552Z,80.30
2018-04-14T21:57:46.197Z,80.50
2018-04-14T22:00:18.804Z,80.50
2018-04-14T22:02:51.424Z,80.60
2018-04-14T22:05:24.060Z,80.60
2018-04-14T22:07:56.701Z,80.40
2018-04-14T22:10:29.304Z,80.60
2018-04-14T22:13:01.931Z,80.60
2018-04-14T22:15:35.300Z,81.00
2018-04-14T22:18:07.932Z,81.00
2018-04-14T22:20:41.292Z,80.80
2018-04-14T22:23:13.912Z,80.70
2018-04-14T22:25:46.534Z,80.30
2018-04-14T22:28:19.182Z,80.00
2018-04-14T22:30:51.802Z,80.00
2018-04-14T22:33:25.183Z,80.00
2018-04-14T22:35:57.792Z,79.90
2018-04-14T22:38:30.416Z,80.10
2018-04-14T22:41:03.016Z,80.20
2018-04-14T22:43:35.653Z,80.40
2018-04-14T22:46:08.255Z,80.40
2018-04-14T22:48:40.873Z,80.80
2018-04-14T22:51:14.236Z,80.80
2018-04-14T22:53:46.876Z,80.80
2018-04-14T22:56:20.237Z,81.30
2018-04-14T22:58:52.881Z,81.30
2018-04-14T23:01:25.476Z,81.10
2018-04-14T23:03:58.117Z,80.90
2018-04-14T23:06:30.716Z,80.90
2018-04-14T23:09:03.352Z,80.30
2018-04-14T23:11:35.948Z,80.50
2018-04-14T23:14:08.568Z,80.60
2018-04-14T23:16:41.173Z,80.90
2018-04-14T23:19:13.834Z,80.80
2018-04-14T23:21:46.453Z,80.60
2018-04-14T23:24:19.080Z,80.90
2018-04-14T23:26:52.447Z,80.50
2018-04-14T23:29:25.068Z,80.50
2018-04-14T23:31:57.684Z,80.20
2018-04-14T23:34:30.330Z,79.80
2018-04-14T23:37:02.936Z,80.50
2018-04-14T23:39:35.556Z,80.80
2018-04-14T23:42:08.911Z,81.00
2018-04-14T23:44:41.528Z,80.90
2018-04-14T23:47:14.144Z,80.90
2018-04-14T23:49:47.535Z,81.60
2018-04-14T23:52:20.904Z,82.10
2018-04-14T23:54:53.529Z,81.50
2018-04-14T23:57:26.128Z,85.10
2018-04-14T23:59:58.769Z,83.90
